Time;durP1;ratioP1;P1;durP2;ratioP2;P2;SDS_P1;SDS_P2;PMS_P1;PMS_P2;Temp;Humidity;BMP_temperature;BMP_pressure;BME280_temperature;BME280_humidity;BME280_pressure;Samples;Min_cycle;Max_cycle;Signal;HPM_P1;HPM_P2
2021/09/20 00:02:00;;;;;;;8.53;7.83;;;;;;;22.36;60.09;94206.80;794200;74;32963;-79
2021/09/20 00:16:59;;;;;;;9.40;8.60;;;;;;;22.13;60.46;94194.94;811414;69;33138;-75
2021/09/20 00:31:43;;;;;;;9.40;8.60;;;;;;;22.06;60.43;94189.52;787996;73;33530;-78
2021/09/20 00:46:16;;;;;;;8.23;7.50;;;;;;;22.25;59.42;94175.22;833799;71;32638;-80
2021/09/20 01:01:08;;;;;;;7.43;6.73;;;;;;;21.98;59.91;94160.65;834145;71;29770;-76
2021/09/20 01:16:08;;;;;;;8.07;7.27;;;;;;;21.85;60.06;94171.39;828302;71;30179;-79
2021/09/20 01:31:09;;;;;;;7.80;7.07;;;;;;;22.04;59.21;94174.41;834095;71;29702;-77
2021/09/20 01:46:59;;;;;;;8.87;7.97;;;;;;;21.45;60.07;94169.67;828721;69;32828;-79
2021/09/20 02:01:08;;;;;;;8.87;7.67;;;;;;;21.35;60.89;94180.94;828660;71;30202;-77
2021/09/20 02:16:15;;;;;;;8.87;8.07;;;;;;;21.69;59.85;94159.59;827336;71;33207;-79
2021/09/20 02:31:09;;;;;;;7.90;7.20;;;;;;;21.66;59.71;94128.30;828432;71;30248;-79
2021/09/20 02:46:14;;;;;;;8.00;7.30;;;;;;;21.18;59.94;94111.56;829451;71;32616;-79
2021/09/20 03:16:14;;;;;;;10.30;8.08;;;;;;;19.65;63.96;94144.14;833883;71;32686;-78
2021/09/20 03:31:10;;;;;;;11.28;8.13;;;;;;;18.17;69.50;94148.36;827951;71;30280;-76
2021/09/20 03:46:47;;;;;;;10.18;8.03;;;;;;;17.48;74.36;94149.88;833856;71;30341;-77
2021/09/20 04:01:33;;;;;;;11.90;8.93;;;;;;;16.99;75.20;94111.09;779892;75;33418;-77
2021/09/20 04:16:09;;;;;;;12.25;10.75;;;;;;;17.28;76.42;94150.30;828120;71;30316;-77
2021/09/20 04:31:14;;;;;;;12.98;11.53;;;;;;;16.71;78.21;94149.45;827934;71;33250;-76
2021/09/20 11:01:17;;;;;;;13.60;12.20;;;;;;;26.78;51.67;154525.05;834097;71;29717;-75
2021/09/20 11:16:12;;;;;;;12.80;10.83;;;;;;;27.40;50.42;93994.78;828810;71;32006;-75
2021/09/20 11:31:46;;;;;;;10.80;7.70;;;;;;;28.27;45.63;93940.34;834140;71;30755;-78
2021/09/20 11:46:33;;;;;;;9.63;6.43;;;;;;;29.06;44.23;93939.33;801968;74;32894;-76
2021/09/20 12:01:08;;;;;;;10.40;6.60;;;;;;;29.32;41.77;93896.47;828343;71;29790;-77
2021/09/20 12:16:09;;;;;;;6.33;5.20;;;;;;;29.27;41.24;93894.25;828363;71;29645;-77
2021/09/20 12:31:17;;;;;;;8.07;6.17;;;;;;;29.02;40.73;93852.20;827549;71;33169;-75
2021/09/20 12:46:19;;;;;;;9.80;5.93;;;;;;;28.40;41.40;93839.25;828043;71;33031;-76
2021/09/20 13:01:11;;;;;;;5.50;4.70;;;;;;;28.18;40.54;93867.27;828396;71;29793;-75
2021/09/20 13:16:14;;;;;;;7.13;4.70;;;;;;;27.92;40.77;93862.97;828449;71;31949;-76
2021/09/20 13:31:15;;;;;;;5.60;4.60;;;;;;;27.93;40.48;93866.42;828820;71;30229;-81
2021/09/20 13:46:19;;;;;;;5.97;4.97;;;;;;;27.34;41.07;93878.02;834253;71;32698;-77
2021/09/20 14:01:09;;;;;;;11.10;5.30;;;;;;;27.11;41.86;93927.23;835439;71;30654;-79
2021/09/20 14:16:09;;;;;;;3.40;3.10;;;;;;;26.16;50.50;165566.28;834144;71;30298;-81
2021/09/20 14:31:09;;;;;;;4.03;3.57;;;;;;;24.65;55.47;94072.02;828399;71;30269;-78
2021/09/20 14:46:08;;;;;;;4.03;3.70;;;;;;;23.97;58.40;94119.20;828449;71;29683;-77
2021/09/20 15:16:16;;;;;;;3.27;3.07;;;;;;;23.70;60.30;94199.70;827776;71;32722;-78
2021/09/20 17:31:09;;;;;;;45.63;41.20;;;;;;;23.22;59.92;94384.66;834486;71;30303;-80
2021/09/20 18:02:00;;;;;;;10.67;9.67;;;;;;;23.26;59.56;94436.33;742936;74;33821;-78
2021/09/20 18:16:19;;;;;;;10.43;9.27;;;;;;;22.97;59.31;94470.27;827713;71;32720;-77
2021/09/20 19:01:10;;;;;;;11.77;10.57;;;;;;;21.95;63.22;94558.15;828208;71;29757;-75
2021/09/20 19:16:16;;;;;;;9.70;8.90;;;;;;;22.49;58.70;94572.33;834772;71;32803;-78
2021/09/20 19:31:59;;;;;;;11.83;10.70;;;;;;;22.56;56.33;94602.59;790827;71;33443;-77
2021/09/20 19:46:33;;;;;;;11.63;10.63;;;;;;;22.59;54.97;94612.58;781281;75;32936;-77
2021/09/20 20:01:08;;;;;;;10.90;9.90;;;;;;;22.47;56.80;94620.05;829691;71;29710;-76
2021/09/20 20:16:34;;;;;;;12.50;11.30;;;;;;;22.31;55.77;94611.61;810868;72;32832;-77
2021/09/20 20:31:09;;;;;;;10.03;9.10;;;;;;;22.46;54.06;94627.86;828973;71;29308;-76
2021/09/20 20:46:53;;;;;;;9.60;8.70;;;;;;;22.33;52.93;94662.05;827705;71;31690;-75
2021/09/20 21:16:43;;;;;;;9.83;8.90;;;;;;;22.35;51.12;94698.56;828610;71;26059;-76
2021/09/20 21:46:08;;;;;;;8.43;6.70;;;;;;;22.22;50.75;94704.61;828557;71;28787;-78
2021/09/20 22:01:08;;;;;;;7.37;6.57;;;;;;;22.21;50.76;94707.09;834166;71;28703;-74
2021/09/20 22:16:14;;;;;;;8.03;7.23;;;;;;;22.08;51.27;94715.85;835286;71;31672;-76
2021/09/20 22:31:46;;;;;;;11.20;7.50;;;;;;;22.03;51.02;94726.06;828416;71;29354;-78
2021/09/20 22:46:08;;;;;;;8.53;7.67;;;;;;;21.89;50.68;94713.21;828367;71;29243;-77
2021/09/20 23:01:14;;;;;;;8.93;8.07;;;;;;;21.55;51.15;94720.97;828369;71;31580;-76
2021/09/20 23:16:09;;;;;;;7.20;6.53;;;;;;;21.64;50.24;94731.45;828452;71;29166;-76
